Time;durP1;ratioP1;P1;durP2;ratioP2;P2;SDS_P1;SDS_P2;PMS_P1;PMS_P2;Temp;Humidity;BMP_temperature;BMP_pressure;BME280_temperature;BME280_humidity;BME280_pressure;Samples;Min_cycle;Max_cycle;Signal;HPM_P1;HPM_P2
2023/06/11 00:02:24;;;;;;;5.63;2.15;;;;;;;20.04;51.44;101975.09;6186964;28;20248;-77
2023/06/11 00:05:46;;;;;;;3.15;1.13;;;;;;;20.18;51.90;101971.69;6203438;28;20240;-76
2023/06/11 00:09:07;;;;;;;1.65;1.23;;;;;;;20.05;51.08;101974.06;6214509;28;20363;-78
2023/06/11 00:12:28;;;;;;;2.50;1.58;;;;;;;19.90;51.63;101978.53;6220013;28;20229;-76
2023/06/11 00:15:50;;;;;;;2.88;1.48;;;;;;;20.01;51.97;101971.81;6203610;28;20227;-76
2023/06/11 00:19:11;;;;;;;4.07;1.27;;;;;;;19.78;52.75;101982.59;6212342;28;20272;-76
2023/06/11 00:22:34;;;;;;;2.15;1.38;;;;;;;19.84;52.63;101981.91;6227583;28;20220;-77
2023/06/11 00:25:55;;;;;;;3.85;1.90;;;;;;;19.93;52.02;101983.66;6214341;28;20239;-77
2023/06/11 00:29:16;;;;;;;1.58;1.40;;;;;;;19.86;52.41;101983.47;6213456;28;20217;-77
2023/06/11 00:32:37;;;;;;;2.15;1.55;;;;;;;19.55;52.59;101976.91;6201782;28;20488;-77
2023/06/11 00:35:58;;;;;;;1.80;1.30;;;;;;;19.65;53.13;101977.59;6212681;28;20314;-80
2023/06/11 00:39:20;;;;;;;2.78;1.67;;;;;;;19.70;53.08;101979.84;6209897;28;20253;-77
2023/06/11 00:42:41;;;;;;;1.70;1.10;;;;;;;19.75;52.69;101969.25;6227096;28;20248;-76
2023/06/11 00:46:02;;;;;;;1.77;1.67;;;;;;;19.76;52.75;101969.09;6211446;28;20587;-76
2023/06/11 00:49:23;;;;;;;1.65;1.17;;;;;;;19.57;53.29;101972.13;6205555;28;20217;-78
2023/06/11 00:52:44;;;;;;;1.85;1.58;;;;;;;19.45;53.34;101975.34;6230031;28;21152;-79
2023/06/11 00:56:07;;;;;;;3.85;1.63;;;;;;;19.17;54.07;101980.16;6216886;28;20360;-76
2023/06/11 00:59:28;;;;;;;4.63;2.22;;;;;;;19.32;54.05;101983.13;6210112;28;20241;-76
2023/06/11 01:02:57;;;;;;;2.28;1.27;;;;;;;19.44;53.80;101984.59;6201026;28;20323;-78
2023/06/11 01:06:19;;;;;;;3.80;1.73;;;;;;;19.64;53.53;101984.13;6220051;28;20329;-77
2023/06/11 01:09:41;;;;;;;2.78;1.73;;;;;;;19.94;52.92;101994.41;6209078;28;20232;-76
2023/06/11 01:13:04;;;;;;;2.80;1.40;;;;;;;19.51;53.54;101991.09;6189121;28;20237;-79
2023/06/11 01:16:34;;;;;;;2.42;1.10;;;;;;;19.40;53.76;101996.88;6213729;28;20387;-77
2023/06/11 01:20:11;;;;;;;2.40;1.75;;;;;;;19.32;54.24;101988.59;6196260;28;20359;-78
2023/06/11 01:23:41;;;;;;;4.30;1.65;;;;;;;19.35;54.59;101991.91;6214321;28;20236;-77
2023/06/11 01:27:09;;;;;;;3.13;1.73;;;;;;;19.37;54.40;101978.06;6218867;28;20219;-77
2023/06/11 01:30:35;;;;;;;2.15;1.38;;;;;;;19.36;54.26;101984.56;6205004;28;20239;-77
2023/06/11 01:33:57;;;;;;;4.13;1.73;;;;;;;19.35;54.53;101980.97;6209735;28;20229;-78
2023/06/11 01:37:21;;;;;;;1.52;1.42;;;;;;;19.13;54.67;101979.66;6214897;28;20622;-76
2023/06/11 01:40:45;;;;;;;2.03;1.45;;;;;;;19.38;54.89;101979.78;6201998;28;20243;-77
2023/06/11 01:44:06;;;;;;;4.13;2.33;;;;;;;19.15;54.82;101979.47;6202650;28;20225;-78
2023/06/11 01:47:29;;;;;;;1.65;1.55;;;;;;;19.08;55.44;101975.72;6214647;28;20323;-78
2023/06/11 01:50:51;;;;;;;6.40;2.25;;;;;;;19.02;54.91;101990.88;6209938;28;20693;-79
2023/06/11 01:54:12;;;;;;;1.55;1.45;;;;;;;18.87;55.71;101987.06;6205866;28;20281;-78
2023/06/11 01:57:33;;;;;;;2.72;1.38;;;;;;;18.82;55.05;101989.41;6214464;28;20233;-77
2023/06/11 02:00:54;;;;;;;2.20;1.75;;;;;;;18.89;55.53;101995.09;6206975;28;20228;-79
2023/06/11 02:04:17;;;;;;;2.03;1.83;;;;;;;18.94;55.59;101998.19;6214507;28;20768;-76
2023/06/11 02:07:37;;;;;;;1.30;1.20;;;;;;;18.81;55.38;101993.19;6227643;28;20217;-76
2023/06/11 02:10:59;;;;;;;2.15;1.73;;;;;;;18.81;55.55;101984.97;6210252;28;20235;-78
2023/06/11 02:14:20;;;;;;;3.33;1.73;;;;;;;18.89;55.72;101993.22;6210920;28;20229;-76
2023/06/11 02:17:41;;;;;;;2.30;1.73;;;;;;;18.75;55.94;101995.69;6201888;28;20225;-77
2023/06/11 02:21:03;;;;;;;5.32;1.60;;;;;;;18.71;55.86;101995.13;6211402;28;20232;-77
2023/06/11 02:24:26;;;;;;;1.42;1.33;;;;;;;18.58;56.23;102004.78;6206231;28;20225;-77
2023/06/11 02:27:48;;;;;;;1.70;1.30;;;;;;;18.38;56.83;102002.22;6226564;28;20261;-77
2023/06/11 02:31:10;;;;;;;1.83;1.50;;;;;;;18.56;56.61;101995.91;6208091;28;20260;-78
2023/06/11 02:34:31;;;;;;;1.58;1.13;;;;;;;18.54;56.58;101993.34;6207767;28;20237;-78
2023/06/11 02:37:53;;;;;;;1.45;1.35;;;;;;;18.50;56.73;101993.81;6180444;28;20233;-77
2023/06/11 02:41:15;;;;;;;2.55;1.52;;;;;;;18.44;56.73;101998.03;6210034;28;20318;-77
2023/06/11 02:44:36;;;;;;;3.15;1.45;;;;;;;18.43;56.61;101989.97;6205277;28;20244;-76
2023/06/11 02:47:57;;;;;;;1.20;1.10;;;;;;;18.58;57.02;101983.81;6214454;28;20256;-76
2023/06/11 02:51:18;;;;;;;1.15;0.98;;;;;;;18.27;57.32;101994.28;6214700;28;20581;-77
2023/06/11 02:54:40;;;;;;;2.88;1.42;;;;;;;18.17;57.90;101989.94;6205385;28;20229;-76
2023/06/11 02:58:01;;;;;;;2.40;1.73;;;;;;;18.27;57.63;101990.72;6198768;28;20229;-79
2023/06/11 03:01:22;;;;;;;1.98;1.35;;;;;;;18.38;57.49;101995.91;6209226;28;20284;-76
2023/06/11 03:04:43;;;;;;;3.42;2.03;;;;;;;18.41;57.42;102008.38;6208333;28;20228;-77
2023/06/11 03:08:05;;;;;;;4.20;1.40;;;;;;;18.31;58.02;102005.75;6204358;28;20225;-77
2023/06/11 03:11:27;;;;;;;2.90;1.70;;;;;;;18.50;57.75;102012.94;6215250;28;20721;-76
2023/06/11 03:14:48;;;;;;;2.22;1.33;;;;;;;18.55;57.22;102016.91;6199671;28;20225;-76
2023/06/11 03:18:09;;;;;;;1.85;1.20;;;;;;;18.46;57.68;102008.81;6203828;28;20229;-78
2023/06/11 03:21:32;;;;;;;3.60;2.00;;;;;;;18.61;57.35;102009.94;6219977;28;20239;-78
2023/06/11 03:24:54;;;;;;;3.25;1.85;;;;;;;18.50;57.66;102013.81;6207063;28;20229;-76
2023/06/11 03:28:27;;;;;;;4.05;1.65;;;;;;;18.60;57.32;102009.09;6205593;28;20316;-77
2023/06/11 03:31:48;;;;;;;2.47;2.05;;;;;;;18.36;58.10;102011.59;6234524;28;20310;-78
2023/06/11 03:35:10;;;;;;;1.15;1.00;;;;;;;18.54;58.40;102009.72;6203215;28;20258;-76
2023/06/11 03:38:31;;;;;;;5.43;2.70;;;;;;;18.49;58.04;102014.81;6219447;28;20566;-77
2023/06/11 03:41:52;;;;;;;2.70;1.65;;;;;;;18.64;58.09;102005.00;6232308;28;20235;-77
2023/06/11 03:45:17;;;;;;;1.30;1.17;;;;;;;18.86;57.59;102014.53;6199689;28;20742;-76
2023/06/11 03:48:38;;;;;;;2.45;1.58;;;;;;;18.73;57.59;102014.94;6213009;28;20232;-77
2023/06/11 03:51:59;;;;;;;4.07;2.22;;;;;;;18.82;58.11;102021.34;6222444;28;20239;-78
2023/06/11 03:55:20;;;;;;;3.22;1.83;;;;;;;18.72;57.99;102006.94;6201304;28;20231;-78
2023/06/11 03:58:41;;;;;;;2.28;2.10;;;;;;;18.88;57.96;102001.56;6217755;28;20241;-77
2023/06/11 04:02:04;;;;;;;2.42;2.20;;;;;;;18.98;57.47;101999.59;6222747;28;20241;-77
2023/06/11 04:05:25;;;;;;;2.33;1.85;;;;;;;18.96;57.41;101998.88;6205618;28;20255;-78
2023/06/11 04:08:50;;;;;;;3.58;1.85;;;;;;;18.95;57.71;102006.22;6213810;28;20221;-77
2023/06/11 04:12:12;;;;;;;3.55;2.05;;;;;;;19.13;57.46;102008.84;6222908;28;20228;-78
2023/06/11 04:15:33;;;;;;;4.00;1.95;;;;;;;19.05;57.61;102004.22;6208704;28;20236;-78
2023/06/11 04:19:00;;;;;;;1.88;1.77;;;;;;;18.96;58.10;102007.09;6214357;28;20257;-78
2023/06/11 04:22:21;;;;;;;2.13;1.90;;;;;;;19.19;57.86;102005.50;6217590;28;20780;-79
2023/06/11 04:25:43;;;;;;;3.13;2.17;;;;;;;19.15;57.57;102015.00;6206557;28;20324;-78
2023/06/11 04:29:04;;;;;;;4.63;2.03;;;;;;;19.07;58.12;101999.44;6209423;28;20221;-78
2023/06/11 04:32:26;;;;;;;3.72;1.80;;;;;;;18.89;58.21;102008.75;6217029;28;20229;-78
2023/06/11 04:35:50;;;;;;;3.47;1.98;;;;;;;19.05;58.36;102006.09;6207191;28;20251;-77
2023/06/11 04:39:11;;;;;;;2.08;1.88;;;;;;;19.19;58.30;102001.91;6211979;28;20225;-77
2023/06/11 04:42:33;;;;;;;2.00;1.83;;;;;;;19.24;58.13;102000.38;6196444;28;20241;-77
2023/06/11 04:45:55;;;;;;;2.97;2.67;;;;;;;19.31;58.26;102001.44;6210970;28;20235;-76
2023/06/11 04:49:20;;;;;;;2.60;1.95;;;;;;;19.17;58.19;102005.63;6214046;28;20256;-77
2023/06/11 04:52:46;;;;;;;3.63;2.53;;;;;;;19.13;58.61;102000.66;6228970;28;20237;-77
2023/06/11 04:56:08;;;;;;;2.38;2.05;;;;;;;19.08;58.62;102000.31;6211300;28;20243;-77
2023/06/11 04:59:32;;;;;;;1.77;1.67;;;;;;;19.05;58.32;101998.75;6219241;28;20810;-77
2023/06/11 05:02:53;;;;;;;3.08;1.80;;;;;;;18.98;58.64;102003.16;6207369;28;20249;-77
2023/06/11 05:06:15;;;;;;;2.42;1.73;;;;;;;18.93;59.46;101996.47;6219855;28;20232;-77
2023/06/11 05:09:42;;;;;;;3.80;1.77;;;;;;;19.25;58.79;101998.50;6209152;28;20233;-77
2023/06/11 05:13:03;;;;;;;3.47;1.60;;;;;;;19.49;58.31;101995.88;6190516;28;20229;-76
2023/06/11 05:16:26;;;;;;;1.60;1.50;;;;;;;19.20;58.63;101996.25;6215794;28;20815;-78
2023/06/11 05:19:47;;;;;;;2.35;1.95;;;;;;;19.11;59.25;101998.09;6209456;28;20232;-77
2023/06/11 05:23:08;;;;;;;3.33;2.90;;;;;;;18.97;59.87;102003.31;6205144;28;20230;-78
2023/06/11 05:26:32;;;;;;;3.50;1.85;;;;;;;18.94;59.79;101993.56;6222411;28;20334;-77
2023/06/11 05:29:54;;;;;;;4.07;2.55;;;;;;;19.17;59.91;101987.53;6214236;28;20233;-77
2023/06/11 05:33:16;;;;;;;1.92;1.73;;;;;;;19.49;59.42;101990.41;6210680;28;20237;-77
2023/06/11 05:36:38;;;;;;;4.68;2.22;;;;;;;19.58;58.29;101989.41;6220674;28;20239;-77
2023/06/11 05:40:00;;;;;;;3.42;1.40;;;;;;;19.66;58.81;101992.16;6205613;28;20316;-77
2023/06/11 05:43:23;;;;;;;2.70;1.77;;;;;;;20.02;58.17;101990.84;6217964;28;20327;-78
2023/06/11 05:46:45;;;;;;;1.95;1.80;;;;;;;20.42;57.47;101990.84;6206177;28;20577;-78
2023/06/11 05:50:07;;;;;;;3.55;2.17;;;;;;;20.63;57.34;101995.81;6197640;28;20230;-77
2023/06/11 05:53:29;;;;;;;1.73;1.60;;;;;;;20.53;57.10;101993.25;6218173;28;20315;-78
2023/06/11 05:56:51;;;;;;;3.50;2.00;;;;;;;20.79;56.72;101997.66;6234751;28;20530;-79
2023/06/11 06:00:16;;;;;;;2.22;1.80;;;;;;;20.64;56.27;102000.25;6200882;28;20229;-77
2023/06/11 06:03:37;;;;;;;3.92;2.15;;;;;;;20.77;56.55;102006.06;6224398;28;20254;-77
2023/06/11 06:06:57;;;;;;;2.70;2.08;;;;;;;21.03;55.45;102000.34;6205891;28;20316;-78
2023/06/11 06:10:18;;;;;;;3.40;2.53;;;;;;;21.21;55.54;102001.84;6200335;28;20235;-78
2023/06/11 06:13:40;;;;;;;6.00;3.20;;;;;;;21.29;54.86;101998.19;6212633;28;20543;-78
2023/06/11 06:17:02;;;;;;;3.03;2.00;;;;;;;21.44;54.46;102002.72;6209867;28;20221;-79
2023/06/11 06:20:29;;;;;;;1.92;1.48;;;;;;;21.18;54.63;102002.19;6194000;28;20688;-78
2023/06/11 06:23:51;;;;;;;6.07;1.95;;;;;;;21.74;54.34;102003.75;6220637;28;20783;-77
2023/06/11 06:27:12;;;;;;;2.60;1.65;;;;;;;22.01;53.31;102011.50;6220646;28;20504;-77
2023/06/11 06:30:34;;;;;;;4.05;2.47;;;;;;;21.70;53.26;102001.56;6219138;28;20243;-78
2023/06/11 06:33:56;;;;;;;3.85;2.00;;;;;;;21.19;54.26;102003.03;6217647;28;20225;-77
2023/06/11 06:37:20;;;;;;;2.65;1.45;;;;;;;21.65;54.02;102009.50;6213989;28;20229;-78
2023/06/11 06:40:41;;;;;;;2.22;1.55;;;;;;;22.12;53.19;102007.47;6202187;28;20231;-78
2023/06/11 06:44:02;;;;;;;1.80;1.58;;;;;;;22.37;52.32;102005.38;6222046;28;20237;-79
2023/06/11 06:47:24;;;;;;;4.40;1.83;;;;;;;22.64;51.81;102007.56;6210363;28;20236;-78
2023/06/11 06:50:46;;;;;;;3.72;1.70;;;;;;;22.69;52.10;102003.22;6192776;28;20293;-78
2023/06/11 06:54:07;;;;;;;3.58;2.20;;;;;;;22.64;51.14;101999.31;6194014;28;20604;-77
2023/06/11 06:57:30;;;;;;;3.30;2.05;;;;;;;22.88;51.20;102004.56;6206017;28;20607;-77
2023/06/11 07:00:51;;;;;;;1.83;1.70;;;;;;;22.95;51.02;102002.75;6180721;28;20212;-78
2023/06/11 07:04:14;;;;;;;10.10;2.17;;;;;;;22.76;50.72;102003.34;6198584;28;20325;-78
2023/06/11 07:07:37;;;;;;;3.22;2.42;;;;;;;22.84;51.57;102004.06;6198271;28;20222;-77
2023/06/11 07:10:58;;;;;;;2.72;2.53;;;;;;;23.02;51.25;101999.06;6194575;28;20237;-77
2023/06/11 07:14:28;;;;;;;3.65;2.28;;;;;;;23.02;50.95;102001.81;6200085;28;20751;-77
2023/06/11 07:17:49;;;;;;;5.00;2.78;;;;;;;23.01;51.34;102001.97;6204118;28;20749;-78
2023/06/11 07:21:14;;;;;;;3.28;1.73;;;;;;;23.17;51.25;102010.06;6217032;28;20228;-77
2023/06/11 07:24:39;;;;;;;2.60;1.88;;;;;;;23.38;50.16;102010.19;6215150;28;20260;-78
2023/06/11 07:28:01;;;;;;;1.92;1.70;;;;;;;23.08;50.07;102004.84;6181934;28;20236;-77
2023/06/11 07:31:24;;;;;;;3.47;1.90;;;;;;;23.33;50.68;102004.38;6194406;28;20229;-78
2023/06/11 07:34:45;;;;;;;2.72;2.15;;;;;;;23.46;50.16;102011.97;6174067;28;20233;-77
2023/06/11 07:38:06;;;;;;;7.22;6.13;;;;;;;23.08;51.01;102011.19;6213019;28;20236;-77
2023/06/11 07:41:29;;;;;;;3.88;2.47;;;;;;;23.60;50.77;102011.94;6197449;28;21334;-77
2023/06/11 07:44:49;;;;;;;6.63;4.43;;;;;;;23.57;49.85;102005.97;6203586;28;20237;-78
2023/06/11 07:48:11;;;;;;;3.22;2.28;;;;;;;23.74;49.97;102007.41;6197639;28;20232;-78
2023/06/11 07:51:32;;;;;;;4.32;1.95;;;;;;;23.79;49.37;101999.44;6192416;28;20549;-77
2023/06/11 07:54:59;;;;;;;4.28;2.28;;;;;;;24.01;48.79;102005.81;6211062;28;20229;-76
2023/06/11 07:58:21;;;;;;;5.57;2.72;;;;;;;23.72;48.78;102004.00;6204550;28;20228;-76
2023/06/11 08:01:42;;;;;;;3.67;2.20;;;;;;;23.82;48.38;102002.63;6195468;28;20230;-78
2023/06/11 08:05:03;;;;;;;11.50;2.60;;;;;;;24.31;48.24;101994.47;6201793;28;20228;-75
2023/06/11 08:08:24;;;;;;;2.95;2.60;;;;;;;24.52;47.63;101999.09;6199035;28;20744;-69
2023/06/11 08:11:45;;;;;;;9.90;8.82;;;;;;;24.48;48.59;102001.44;6190258;28;20229;-68
2023/06/11 08:15:08;;;;;;;3.90;2.53;;;;;;;24.60;47.32;102007.22;6188487;28;20236;-71
2023/06/11 08:18:29;;;;;;;75.63;68.22;;;;;;;24.77;47.62;101996.78;6193760;28;20690;-69
2023/06/11 08:21:50;;;;;;;436.75;396.20;;;;;;;25.61;49.27;101998.31;6202618;28;20226;-70
2023/06/11 08:25:11;;;;;;;259.48;171.85;;;;;;;26.06;45.65;102000.34;6197130;28;20241;-69
2023/06/11 08:28:32;;;;;;;36.50;27.05;;;;;;;26.34;46.10;101991.91;6204795;28;20655;-68
2023/06/11 08:31:55;;;;;;;37.72;34.22;;;;;;;26.51;45.96;101991.28;6193404;28;20224;-68
2023/06/11 08:35:16;;;;;;;555.25;504.27;;;;;;;27.02;46.20;101990.56;6207375;28;20634;-68
2023/06/11 08:38:37;;;;;;;182.10;166.35;;;;;;;27.07;44.51;102001.84;6188398;28;20320;-69
2023/06/11 08:41:58;;;;;;;136.77;122.38;;;;;;;26.83;42.96;101989.56;6200563;28;20603;-68
2023/06/11 08:45:19;;;;;;;6.80;6.25;;;;;;;26.43;43.06;101997.00;6198814;28;20347;-68
2023/06/11 08:48:43;;;;;;;5.18;4.15;;;;;;;26.52;43.99;101992.09;6200776;28;20238;-68
2023/06/11 08:52:04;;;;;;;4.35;3.08;;;;;;;26.47;44.12;101989.16;6191067;28;20226;-68
2023/06/11 08:55:25;;;;;;;2.35;2.15;;;;;;;26.55;44.34;101986.16;6194335;28;20238;-68
2023/06/11 08:58:47;;;;;;;3.03;1.88;;;;;;;25.41;44.60;101998.22;6189484;28;20611;-68
2023/06/11 09:02:08;;;;;;;2.40;2.00;;;;;;;25.58;44.62;101991.28;6186645;28;20233;-69
2023/06/11 09:05:31;;;;;;;2.35;2.15;;;;;;;26.00;44.63;101993.75;6188393;28;20233;-69
2023/06/11 09:08:59;;;;;;;7.03;2.45;;;;;;;25.97;43.84;101996.09;6187739;28;20507;-68
2023/06/11 09:12:20;;;;;;;3.75;1.85;;;;;;;25.97;44.05;101994.16;6177559;28;20233;-68
2023/06/11 09:15:47;;;;;;;2.45;2.25;;;;;;;26.32;43.42;101986.59;6186454;28;20225;-69
2023/06/11 09:19:11;;;;;;;2.28;1.83;;;;;;;26.46;42.70;101996.59;6192604;28;20519;-68
2023/06/11 09:22:36;;;;;;;2.97;1.88;;;;;;;26.76;42.80;101991.50;6193275;28;20316;-69
2023/06/11 09:25:59;;;;;;;3.47;1.83;;;;;;;26.62;42.71;101985.06;6195836;28;20312;-69
2023/06/11 09:29:19;;;;;;;2.90;2.67;;;;;;;26.78;41.66;101984.69;6196410;28;20420;-68
2023/06/11 09:32:41;;;;;;;3.45;2.13;;;;;;;26.80;41.83;101992.78;6189222;28;20225;-69
2023/06/11 09:36:02;;;;;;;6.15;2.20;;;;;;;26.74;42.83;101988.91;6188762;28;20261;-70
2023/06/11 09:39:25;;;;;;;4.93;2.90;;;;;;;26.30;42.79;101980.44;6198996;28;20286;-72
2023/06/11 09:42:48;;;;;;;2.38;2.17;;;;;;;26.56;44.05;101985.94;6202255;28;20237;-70
2023/06/11 09:46:08;;;;;;;2.38;2.22;;;;;;;26.88;43.87;101987.00;6197562;28;20292;-70
2023/06/11 09:49:30;;;;;;;2.47;1.73;;;;;;;26.99;43.30;101994.66;6200045;28;20428;-69
2023/06/11 09:52:52;;;;;;;2.92;2.15;;;;;;;26.08;42.32;101990.81;6176222;28;20229;-71
2023/06/11 09:56:15;;;;;;;2.92;2.72;;;;;;;26.28;40.73;101987.22;6185739;28;20237;-71
2023/06/11 09:59:37;;;;;;;2.53;1.92;;;;;;;26.91;41.25;101981.88;6196391;28;20237;-72
2023/06/11 10:02:58;;;;;;;2.65;1.60;;;;;;;26.53;40.76;101991.91;6190827;28;20225;-72
2023/06/11 10:06:24;;;;;;;3.00;2.63;;;;;;;26.78;41.97;101989.38;6209574;28;20233;-72
2023/06/11 10:09:49;;;;;;;4.28;3.47;;;;;;;26.98;40.40;101987.41;6192501;28;20237;-72
2023/06/11 10:13:12;;;;;;;2.47;2.28;;;;;;;27.43;39.57;101985.59;6197112;28;20238;-72
2023/06/11 10:16:33;;;;;;;2.05;1.60;;;;;;;27.10;39.87;101985.66;6206436;28;20276;-72
2023/06/11 10:19:55;;;;;;;2.25;2.05;;;;;;;27.54;39.45;101982.97;6204733;28;20329;-71
2023/06/11 10:23:17;;;;;;;5.28;2.13;;;;;;;27.84;39.21;101986.00;6203953;28;20245;-72
2023/06/11 10:26:37;;;;;;;2.30;2.13;;;;;;;27.98;38.51;101981.25;6207080;28;20238;-72
2023/06/11 10:29:59;;;;;;;8.75;2.97;;;;;;;27.93;37.59;101978.28;6195451;28;20252;-73
2023/06/11 10:33:20;;;;;;;2.60;2.40;;;;;;;27.57;35.67;101965.91;6199977;28;20232;-73
2023/06/11 10:36:42;;;;;;;2.90;2.63;;;;;;;28.03;36.68;101968.41;6216191;28;21682;-73
2023/06/11 10:40:03;;;;;;;4.10;2.85;;;;;;;28.35;36.16;101967.28;6187378;28;20229;-71
2023/06/11 10:43:24;;;;;;;2.50;2.08;;;;;;;28.18;35.52;101960.59;6213597;28;20554;-72
2023/06/11 10:46:53;;;;;;;3.10;2.88;;;;;;;27.63;34.81;101956.69;6213219;28;20256;-73
2023/06/11 10:50:15;;;;;;;3.28;2.70;;;;;;;27.48;35.94;101960.81;6174513;28;20228;-71
2023/06/11 10:53:40;;;;;;;2.47;2.28;;;;;;;27.67;35.71;101960.72;6211036;28;20232;-73
2023/06/11 10:57:02;;;;;;;2.10;1.90;;;;;;;27.95;36.37;101959.50;6211221;28;20231;-73
2023/06/11 11:00:23;;;;;;;3.05;2.33;;;;;;;28.18;36.46;101962.56;6186617;28;20285;-72
2023/06/11 11:03:46;;;;;;;2.72;1.70;;;;;;;28.29;37.48;101959.88;6209082;28;20595;-72
2023/06/11 11:07:08;;;;;;;4.80;2.58;;;;;;;28.65;37.25;101955.53;6191763;28;20225;-68
2023/06/11 11:10:29;;;;;;;2.63;1.80;;;;;;;28.83;36.91;101953.63;6196127;28;20237;-69
2023/06/11 11:13:51;;;;;;;3.58;2.30;;;;;;;28.68;36.00;101961.50;6198813;28;20225;-70
2023/06/11 11:17:12;;;;;;;2.63;2.28;;;;;;;28.69;36.29;101954.00;6198887;28;20311;-69
2023/06/11 11:20:34;;;;;;;3.58;2.20;;;;;;;28.27;35.93;101941.75;6195566;28;20228;-70
2023/06/11 11:23:55;;;;;;;2.97;1.83;;;;;;;28.95;35.88;101942.63;6196629;28;20237;-69
2023/06/11 11:27:16;;;;;;;4.63;2.97;;;;;;;29.20;34.30;101940.63;6191061;28;20292;-68
2023/06/11 11:30:39;;;;;;;3.55;1.88;;;;;;;29.23;34.10;101938.22;6194430;28;20252;-70
2023/06/11 11:34:00;;;;;;;2.63;1.75;;;;;;;29.21;33.58;101939.53;6195754;28;20241;-68
2023/06/11 11:37:22;;;;;;;4.70;2.10;;;;;;;29.59;32.60;101933.69;6200332;28;20229;-69
2023/06/11 11:40:43;;;;;;;3.50;2.00;;;;;;;29.46;32.19;101940.28;6206492;28;20235;-69
2023/06/11 11:44:06;;;;;;;2.58;2.20;;;;;;;29.88;31.65;101933.69;6216461;28;20605;-70
2023/06/11 11:47:28;;;;;;;3.10;2.10;;;;;;;29.37;31.48;101930.59;6205689;28;20226;-71
2023/06/11 11:51:04;;;;;;;3.65;1.98;;;;;;;29.37;31.92;101930.59;6190123;28;20228;-69
2023/06/11 11:54:27;;;;;;;3.97;2.63;;;;;;;29.88;32.15;101928.13;6210597;28;20346;-69
2023/06/11 11:57:47;;;;;;;1.75;1.63;;;;;;;29.60;31.69;101927.88;6199284;28;20674;-68
2023/06/11 12:01:21;;;;;;;2.33;2.10;;;;;;;29.26;31.97;101920.25;6207010;28;20641;-68
2023/06/11 12:04:46;;;;;;;7.55;2.70;;;;;;;29.64;31.52;101928.28;6189821;28;20400;-68
2023/06/11 12:08:07;;;;;;;4.90;2.03;;;;;;;29.77;32.21;101934.50;6195940;28;20737;-68
2023/06/11 12:11:30;;;;;;;1.70;1.60;;;;;;;29.95;32.47;101925.25;6216619;28;20228;-68
2023/06/11 12:14:50;;;;;;;2.63;1.95;;;;;;;30.26;32.05;101929.66;6205676;28;20228;-68
2023/06/11 12:18:11;;;;;;;3.00;1.70;;;;;;;29.53;31.28;101917.94;6203724;28;20233;-68
2023/06/11 12:21:33;;;;;;;3.58;2.05;;;;;;;29.81;32.08;101910.69;6209423;28;22885;-68
2023/06/11 12:24:54;;;;;;;3.25;2.40;;;;;;;30.09;31.60;101911.97;6212928;28;20622;-67
2023/06/11 12:28:18;;;;;;;2.42;2.17;;;;;;;30.39;31.84;101913.63;6203512;28;20780;-68
2023/06/11 12:31:39;;;;;;;3.50;2.47;;;;;;;30.75;32.22;101913.34;6220955;28;20240;-69
2023/06/11 12:35:00;;;;;;;2.25;1.58;;;;;;;30.76;31.81;101911.41;6188347;28;20234;-68
2023/06/11 12:38:21;;;;;;;3.60;1.75;;;;;;;30.99;30.60;101902.19;6221774;28;20233;-68
2023/06/11 12:41:42;;;;;;;3.33;1.98;;;;;;;30.93;31.10;101903.19;6215892;28;20232;-67
2023/06/11 12:45:05;;;;;;;2.75;1.95;;;;;;;30.90;31.06;101903.66;6203925;28;20279;-68
2023/06/11 12:48:26;;;;;;;2.00;1.67;;;;;;;31.08;31.10;101904.38;6220266;28;20226;-66
2023/06/11 12:51:48;;;;;;;3.22;1.73;;;;;;;30.90;30.47;101907.28;6222078;28;20827;-67
2023/06/11 12:55:09;;;;;;;1.70;1.60;;;;;;;31.01;30.30;101903.66;6193497;28;20230;-68
2023/06/11 12:58:30;;;;;;;2.25;2.08;;;;;;;31.20;30.79;101905.19;6222271;28;20514;-68
2023/06/11 13:01:53;;;;;;;2.35;2.00;;;;;;;31.17;30.20;101902.88;6214287;28;20255;-67
2023/06/11 13:05:14;;;;;;;1.92;1.73;;;;;;;31.36;29.88;101897.94;6199111;28;20576;-66
2023/06/11 13:08:34;;;;;;;2.30;2.00;;;;;;;31.71;29.32;101893.06;6230117;28;20237;-66
2023/06/11 13:11:55;;;;;;;2.45;1.52;;;;;;;31.68;29.38;101904.75;6208993;28;20235;-66
2023/06/11 13:15:16;;;;;;;2.83;2.03;;;;;;;32.12;29.73;101894.69;6188298;28;20317;-67
2023/06/11 13:18:39;;;;;;;2.53;1.63;;;;;;;32.55;29.49;101888.41;6207309;28;20251;-67
2023/06/11 13:22:00;;;;;;;5.20;2.88;;;;;;;33.01;28.16;101896.34;6210114;28;20232;-67
2023/06/11 13:25:21;;;;;;;2.38;2.17;;;;;;;35.11;26.31;101898.56;6183269;28;20232;-66
2023/06/11 13:28:43;;;;;;;3.53;2.22;;;;;;;37.53;24.56;101891.69;6213739;28;20233;-66
2023/06/11 13:32:05;;;;;;;1.90;1.67;;;;;;;38.13;23.37;101896.06;6212566;28;20310;-66
2023/06/11 13:35:28;;;;;;;2.33;2.10;;;;;;;38.48;23.45;101900.53;6185975;28;22127;-67
2023/06/11 13:38:49;;;;;;;2.65;1.83;;;;;;;38.87;22.94;101904.09;6209011;28;20552;-67
2023/06/11 13:42:11;;;;;;;2.03;1.80;;;;;;;37.70;23.14;101887.66;6212842;28;20259;-66
2023/06/11 13:45:31;;;;;;;2.97;2.78;;;;;;;36.84;23.15;101883.25;6198112;28;20235;-67
2023/06/11 13:48:52;;;;;;;2.22;1.95;;;;;;;36.52;24.17;101881.94;6200386;28;20229;-68
2023/06/11 13:52:14;;;;;;;5.13;1.88;;;;;;;35.49;23.58;101889.72;6204838;28;20318;-67
2023/06/11 13:55:35;;;;;;;2.70;2.50;;;;;;;35.36;24.75;101887.44;6194549;28;20244;-67
2023/06/11 13:58:56;;;;;;;2.10;2.00;;;;;;;35.26;25.02;101881.78;6215540;28;20316;-67
2023/06/11 14:02:19;;;;;;;2.08;1.90;;;;;;;34.72;24.62;101874.78;6218738;28;20324;-68
2023/06/11 14:05:40;;;;;;;2.53;1.85;;;;;;;33.88;25.94;101871.88;6209742;28;20570;-67
2023/06/11 14:09:03;;;;;;;3.33;2.30;;;;;;;33.96;25.93;101879.81;6219155;28;20371;-67
2023/06/11 14:12:24;;;;;;;3.05;1.90;;;;;;;32.93;25.53;101880.84;6207720;28;20230;-68
2023/06/11 14:15:45;;;;;;;4.00;2.55;;;;;;;33.13;26.23;101873.88;6204059;28;20224;-67
2023/06/11 14:19:07;;;;;;;3.08;2.80;;;;;;;33.33;25.90;101879.69;6219438;28;20515;-68
2023/06/11 14:22:28;;;;;;;2.10;2.00;;;;;;;32.80;27.51;101872.84;6220689;28;20233;-68
2023/06/11 14:25:50;;;;;;;1.55;1.40;;;;;;;32.92;27.61;101876.34;6208260;28;20636;-67
2023/06/11 14:29:11;;;;;;;4.07;1.92;;;;;;;32.57;27.09;101870.28;6210316;28;20230;-67
2023/06/11 14:32:32;;;;;;;4.78;2.35;;;;;;;32.56;26.59;101877.00;6200542;28;20319;-68
2023/06/11 14:35:53;;;;;;;4.47;2.50;;;;;;;32.92;26.25;101867.13;6188950;28;20250;-69
2023/06/11 14:39:14;;;;;;;2.75;2.30;;;;;;;32.93;26.06;101866.88;6205348;28;20320;-68
2023/06/11 14:42:36;;;;;;;2.72;2.13;;;;;;;32.92;27.23;101864.31;6207938;28;20269;-69
2023/06/11 14:45:57;;;;;;;3.83;1.70;;;;;;;32.70;25.72;101866.28;6192758;28;20231;-67
2023/06/11 14:49:19;;;;;;;5.55;1.70;;;;;;;32.84;26.74;101864.78;6201700;28;20745;-68
2023/06/11 14:52:40;;;;;;;2.17;1.77;;;;;;;32.90;26.33;101853.41;6226388;28;20237;-67
2023/06/11 14:56:01;;;;;;;2.00;1.70;;;;;;;32.74;25.66;101853.47;6198322;28;20227;-67
2023/06/11 14:59:23;;;;;;;2.20;2.00;;;;;;;32.22;28.56;101853.81;6205048;28;20229;-68
2023/06/11 15:02:44;;;;;;;2.58;1.52;;;;;;;32.42;30.21;101866.41;6205703;28;20229;-68
2023/06/11 15:06:05;;;;;;;3.00;2.13;;;;;;;32.44;30.69;101853.03;6206575;28;20617;-68
2023/06/11 15:09:26;;;;;;;2.83;2.17;;;;;;;32.45;30.99;101858.34;6209273;28;20544;-69
2023/06/11 15:12:47;;;;;;;1.58;1.48;;;;;;;32.31;30.95;101851.44;6224842;28;20245;-68
2023/06/11 15:16:09;;;;;;;2.65;2.38;;;;;;;32.44;30.95;101851.06;6212781;28;20228;-67
2023/06/11 15:19:30;;;;;;;4.72;2.58;;;;;;;32.54;30.88;101856.00;6213390;28;20319;-68
2023/06/11 15:22:51;;;;;;;3.78;2.22;;;;;;;32.13;31.90;101852.56;6227839;28;20224;-68
2023/06/11 15:26:11;;;;;;;2.45;1.77;;;;;;;31.42;32.68;101853.22;6213101;28;20263;-68
2023/06/11 15:29:32;;;;;;;4.90;3.80;;;;;;;31.52;32.31;101845.03;6206097;28;20237;-66
2023/06/11 15:32:54;;;;;;;3.67;2.65;;;;;;;31.84;32.62;101844.47;6226711;28;20229;-68
2023/06/11 15:36:15;;;;;;;3.15;2.85;;;;;;;31.67;31.87;101844.47;6213781;28;20308;-68
2023/06/11 15:39:36;;;;;;;4.40;3.42;;;;;;;31.80;31.96;101840.50;6218553;28;20224;-68